PWSweather.com
Personal Weather Stations
Station Observations
J24K28P63
Vysocina, PocatkyCZ 39464

VysocinaPocatkyCZ 39464

Lat: 49.2594238, Lon: 15.2331769

Elevation: 2011

Station Type: Vantage Pro2+

http://meteo-jirkalina.com

High Low Average
Temperature 45.4°F7.4°C 26.7°F-2.9°C 37.0°F2.8°C
Dew Point 36.2°F2.3°C 21.7°F-5.7°C 31.5°F-0.3°C
Winds 8.0 mph 12.9 kmh Calm Calm 3.0 mph SSW4.8 kmh SSW
Wind Gusts 14.0 mph22.5 kmh -- 5.0 mph8.0 kmh
Humidity 96% 54% 81%
Pressure 30.35 in1027.8 mb 29.88 in1011.9 mb -
Precipitation 0.00 in0.0 mm - -
Hour Temp Dew Point Humidity Winds Wind Gusts Pressure Precip Precip Rate Daily Precip Total
12:00 AM 40.5°F4.7°C 36.0°F2.2°C 84% 3.0 mph WSW4.8 kmh WSW 5.0 mph8.0 kmh 30.35 in1027.8 mb 0.00 in0.0 mm 0.00 in0.0 mm 0.00 in0.0 mm
12:10 AM 40.4°F4.7°C 35.9°F2.2°C 84% 3.0 mph SSW4.8 kmh SSW 5.0 mph8.0 kmh 30.35 in1027.8 mb 0.00 in0.0 mm 0.00 in0.0 mm 0.00 in0.0 mm
12:20 AM 40.4°F4.7°C 36.0°F2.2°C 84% 5.0 mph SW8.0 kmh SW 7.0 mph11.3 kmh 30.35 in1027.8 mb 0.00 in0.0 mm 0.00 in0.0 mm 0.00 in0.0 mm
12:30 AM 40.4°F4.7°C 35.9°F2.2°C 84% 3.0 mph SW4.8 kmh SW 3.0 mph4.8 kmh 30.34 in1027.4 mb 0.00 in0.0 mm 0.00 in0.0 mm 0.00 in0.0 mm
12:40 AM 40.4°F4.7°C 35.9°F2.2°C 84% 5.0 mph SW8.0 kmh SW 7.0 mph11.3 kmh 30.34 in1027.4 mb 0.00 in0.0 mm 0.00 in0.0 mm 0.00 in0.0 mm
12:50 AM 40.3°F4.6°C 36.1°F2.3°C 85% 3.0 mph SW4.8 kmh SW 3.0 mph4.8 kmh 30.34 in1027.4 mb 0.00 in0.0 mm 0.00 in0.0 mm 0.00 in0.0 mm
01:00 AM 40.1°F4.5°C 36.0°F2.2°C 85% 5.0 mph SW8.0 kmh SW 6.0 mph9.7 kmh 30.34 in1027.4 mb 0.00 in0.0 mm 0.00 in0.0 mm 0.00 in0.0 mm
01:10 AM 40.0°F4.4°C 36.2°F2.3°C 86% 3.0 mph SW4.8 kmh SW 5.0 mph8.0 kmh 30.34 in1027.4 mb 0.00 in0.0 mm 0.00 in0.0 mm 0.00 in0.0 mm
01:20 AM 40.0°F4.4°C 36.2°F2.3°C 86% 3.0 mph SW4.8 kmh SW 5.0 mph8.0 kmh 30.34 in1027.4 mb 0.00 in0.0 mm 0.00 in0.0 mm 0.00 in0.0 mm
01:30 AM 40.0°F4.4°C 35.9°F2.2°C 85% 3.0 mph SW4.8 kmh SW 3.0 mph4.8 kmh 30.34 in1027.4 mb 0.00 in0.0 mm 0.00 in0.0 mm 0.00 in0.0 mm
01:40 AM 40.1°F4.5°C 36.0°F2.2°C 85% 3.0 mph WSW4.8 kmh WSW 7.0 mph11.3 kmh 30.34 in1027.4 mb 0.00 in0.0 mm 0.00 in0.0 mm 0.00 in0.0 mm
01:50 AM 40.1°F4.5°C 36.0°F2.2°C 85% 2.0 mph SW3.2 kmh SW 6.0 mph9.7 kmh 30.33 in1027.1 mb 0.00 in0.0 mm 0.00 in0.0 mm 0.00 in0.0 mm
02:00 AM 40.2°F4.6°C 36.1°F2.3°C 85% 3.0 mph SW4.8 kmh SW 6.0 mph9.7 kmh 30.33 in1027.1 mb 0.00 in0.0 mm 0.00 in0.0 mm 0.00 in0.0 mm
02:10 AM 40.2°F4.6°C 36.1°F2.3°C 85% 3.0 mph SW4.8 kmh SW 6.0 mph9.7 kmh 30.33 in1027.1 mb 0.00 in0.0 mm 0.00 in0.0 mm 0.00 in0.0 mm
02:20 AM 40.1°F4.5°C 36.0°F2.2°C 85% 3.0 mph SW4.8 kmh SW 5.0 mph8.0 kmh 30.33 in1027.1 mb 0.00 in0.0 mm 0.00 in0.0 mm 0.00 in0.0 mm
02:30 AM 40.0°F4.4°C 35.9°F2.2°C 85% 2.0 mph SW3.2 kmh SW 3.0 mph4.8 kmh 30.32 in1026.8 mb 0.00 in0.0 mm 0.00 in0.0 mm 0.00 in0.0 mm
02:40 AM 39.9°F4.4°C 36.0°F2.2°C 86% 2.0 mph SW3.2 kmh SW 3.0 mph4.8 kmh 30.32 in1026.8 mb 0.00 in0.0 mm 0.00 in0.0 mm 0.00 in0.0 mm
02:50 AM 39.8°F4.3°C 36.0°F2.2°C 86% 2.0 mph SW3.2 kmh SW 5.0 mph8.0 kmh 30.32 in1026.8 mb 0.00 in0.0 mm 0.00 in0.0 mm 0.00 in0.0 mm
03:00 AM 39.8°F4.3°C 35.9°F2.2°C 86% 3.0 mph SSW4.8 kmh SSW 3.0 mph4.8 kmh 30.31 in1026.4 mb 0.00 in0.0 mm 0.00 in0.0 mm 0.00 in0.0 mm
03:10 AM 39.7°F4.3°C 35.9°F2.2°C 86% 3.0 mph SSW4.8 kmh SSW 3.0 mph4.8 kmh 30.31 in1026.4 mb 0.00 in0.0 mm 0.00 in0.0 mm 0.00 in0.0 mm
03:20 AM 39.6°F4.2°C 35.8°F2.1°C 86% 3.0 mph SSW4.8 kmh SSW 6.0 mph9.7 kmh 30.30 in1026.1 mb 0.00 in0.0 mm 0.00 in0.0 mm 0.00 in0.0 mm
03:30 AM 39.7°F4.3°C 35.9°F2.2°C 86% 2.0 mph SSW3.2 kmh SSW 3.0 mph4.8 kmh 30.30 in1026.1 mb 0.00 in0.0 mm 0.00 in0.0 mm 0.00 in0.0 mm
03:40 AM 39.7°F4.3°C 35.9°F2.2°C 86% 3.0 mph SSW4.8 kmh SSW 3.0 mph4.8 kmh 30.30 in1026.1 mb 0.00 in0.0 mm 0.00 in0.0 mm 0.00 in0.0 mm
03:50 AM 39.7°F4.3°C 35.9°F2.2°C 86% 5.0 mph SSW8.0 kmh SSW 7.0 mph11.3 kmh 30.30 in1026.1 mb 0.00 in0.0 mm 0.00 in0.0 mm 0.00 in0.0 mm
04:00 AM 39.8°F4.3°C 35.9°F2.2°C 86% 6.0 mph SSW9.7 kmh SSW 7.0 mph11.3 kmh 30.29 in1025.7 mb 0.00 in0.0 mm 0.00 in0.0 mm 0.00 in0.0 mm
04:10 AM 39.8°F4.3°C 35.7°F2.1°C 85% 5.0 mph SSW8.0 kmh SSW 5.0 mph8.0 kmh 30.29 in1025.7 mb 0.00 in0.0 mm 0.00 in0.0 mm 0.00 in0.0 mm
04:20 AM 39.8°F4.3°C 35.7°F2.1°C 85% 5.0 mph SSW8.0 kmh SSW 7.0 mph11.3 kmh 30.28 in1025.4 mb 0.00 in0.0 mm 0.00 in0.0 mm 0.00 in0.0 mm
04:30 AM 39.8°F4.3°C 35.7°F2.1°C 85% 3.0 mph SSW4.8 kmh SSW 7.0 mph11.3 kmh 30.28 in1025.4 mb 0.00 in0.0 mm 0.00 in0.0 mm 0.00 in0.0 mm
04:40 AM 39.7°F4.3°C 35.9°F2.2°C 86% 5.0 mph SSW8.0 kmh SSW 5.0 mph8.0 kmh 30.28 in1025.4 mb 0.00 in0.0 mm 0.00 in0.0 mm 0.00 in0.0 mm
04:50 AM 39.6°F4.2°C 35.8°F2.1°C 86% 3.0 mph SSW4.8 kmh SSW 5.0 mph8.0 kmh 30.27 in1025.1 mb 0.00 in0.0 mm 0.00 in0.0 mm 0.00 in0.0 mm
05:00 AM 39.5°F4.2°C 35.7°F2.1°C 86% 3.0 mph SSW4.8 kmh SSW 3.0 mph4.8 kmh 30.27 in1025.1 mb 0.00 in0.0 mm 0.00 in0.0 mm 0.00 in0.0 mm
05:10 AM 39.4°F4.1°C 35.5°F1.9°C 86% 3.0 mph SSW4.8 kmh SSW 3.0 mph4.8 kmh 30.27 in1025.1 mb 0.00 in0.0 mm 0.00 in0.0 mm 0.00 in0.0 mm
05:20 AM 39.3°F4.1°C 35.4°F1.9°C 86% 2.0 mph SSW3.2 kmh SSW 3.0 mph4.8 kmh 30.27 in1025.1 mb 0.00 in0.0 mm 0.00 in0.0 mm 0.00 in0.0 mm
05:30 AM 39.2°F4.0°C 35.4°F1.9°C 86% 2.0 mph SSW3.2 kmh SSW 6.0 mph9.7 kmh 30.26 in1024.7 mb 0.00 in0.0 mm 0.00 in0.0 mm 0.00 in0.0 mm
05:40 AM 39.2°F4.0°C 35.4°F1.9°C 86% 1.0 mph SW1.6 kmh SW 3.0 mph4.8 kmh 30.26 in1024.7 mb 0.00 in0.0 mm 0.00 in0.0 mm 0.00 in0.0 mm
05:50 AM 39.2°F4.0°C 35.3°F1.8°C 86% 2.0 mph SW3.2 kmh SW 3.0 mph4.8 kmh 30.26 in1024.7 mb 0.00 in0.0 mm 0.00 in0.0 mm 0.00 in0.0 mm
06:00 AM 39.1°F3.9°C 35.0°F1.7°C 85% 3.0 mph SW4.8 kmh SW 7.0 mph11.3 kmh 30.26 in1024.7 mb 0.00 in0.0 mm 0.00 in0.0 mm 0.00 in0.0 mm
06:10 AM 38.6°F3.7°C 34.8°F1.6°C 86% 3.0 mph SSW4.8 kmh SSW 6.0 mph9.7 kmh 30.26 in1024.7 mb 0.00 in0.0 mm 0.00 in0.0 mm 0.00 in0.0 mm
06:20 AM 38.3°F3.5°C 34.5°F1.4°C 86% 6.0 mph SW9.7 kmh SW 7.0 mph11.3 kmh 30.25 in1024.4 mb 0.00 in0.0 mm 0.00 in0.0 mm 0.00 in0.0 mm
06:30 AM 38.1°F3.4°C 34.3°F1.3°C 86% 5.0 mph SW8.0 kmh SW 5.0 mph8.0 kmh 30.25 in1024.4 mb 0.00 in0.0 mm 0.00 in0.0 mm 0.00 in0.0 mm
06:40 AM 37.7°F3.2°C 33.9°F1.1°C 86% 3.0 mph SSW4.8 kmh SSW 6.0 mph9.7 kmh 30.25 in1024.4 mb 0.00 in0.0 mm 0.00 in0.0 mm 0.00 in0.0 mm
06:50 AM 36.9°F2.7°C 33.4°F0.8°C 87% 2.0 mph SW3.2 kmh SW 3.0 mph4.8 kmh 30.25 in1024.4 mb 0.00 in0.0 mm 0.00 in0.0 mm 0.00 in0.0 mm
07:00 AM 36.1°F2.3°C 33.2°F0.7°C 89% 2.0 mph SW3.2 kmh SW 3.0 mph4.8 kmh 30.25 in1024.4 mb 0.00 in0.0 mm 0.00 in0.0 mm 0.00 in0.0 mm
07:10 AM 36.1°F2.3°C 33.5°F0.8°C 90% 3.0 mph SSW4.8 kmh SSW 7.0 mph11.3 kmh 30.25 in1024.4 mb 0.00 in0.0 mm 0.00 in0.0 mm 0.00 in0.0 mm
07:20 AM 36.5°F2.5°C 33.3°F0.7°C 88% 3.0 mph S4.8 kmh S 5.0 mph8.0 kmh 30.25 in1024.4 mb 0.00 in0.0 mm 0.00 in0.0 mm 0.00 in0.0 mm
07:30 AM 35.8°F2.1°C 32.6°F0.3°C 88% 5.0 mph SSW8.0 kmh SSW 6.0 mph9.7 kmh 30.24 in1024.0 mb 0.00 in0.0 mm 0.00 in0.0 mm 0.00 in0.0 mm
07:40 AM 35.3°F1.8°C 32.4°F0.2°C 89% 3.0 mph SSW4.8 kmh SSW 6.0 mph9.7 kmh 30.24 in1024.0 mb 0.00 in0.0 mm 0.00 in0.0 mm 0.00 in0.0 mm
07:50 AM 34.9°F1.6°C 32.3°F0.2°C 90% 2.0 mph SSE3.2 kmh SSE 7.0 mph11.3 kmh 30.24 in1024.0 mb 0.00 in0.0 mm 0.00 in0.0 mm 0.00 in0.0 mm
08:00 AM 34.9°F1.6°C 32.3°F0.2°C 90% 1.0 mph S1.6 kmh S 3.0 mph4.8 kmh 30.24 in1024.0 mb 0.00 in0.0 mm 0.00 in0.0 mm 0.00 in0.0 mm
08:10 AM 34.8°F1.6°C 32.2°F0.1°C 90% Calm Calm 1.0 mph1.6 kmh 30.24 in1024.0 mb - 0.00 in0.0 mm 0.00 in0.0 mm
08:20 AM 34.5°F1.4°C 31.9°F-0.1°C 90% Calm Calm 3.0 mph4.8 kmh 30.24 in1024.0 mb - 0.00 in0.0 mm 0.00 in0.0 mm
08:30 AM 34.3°F1.3°C 31.9°F-0.1°C 91% Calm Calm 2.0 mph3.2 kmh 30.24 in1024.0 mb - 0.00 in0.0 mm 0.00 in0.0 mm
08:40 AM 34.3°F1.3°C 31.9°F-0.1°C 91% Calm Calm 2.0 mph3.2 kmh 30.24 in1024.0 mb - 0.00 in0.0 mm 0.00 in0.0 mm
08:50 AM 34.7°F1.5°C 32.3°F0.2°C 91% Calm Calm 1.0 mph1.6 kmh 30.24 in1024.0 mb - 0.00 in0.0 mm 0.00 in0.0 mm
09:00 AM 35.2°F1.8°C 32.6°F0.3°C 90% 2.0 mph S3.2 kmh S 2.0 mph3.2 kmh 30.24 in1024.0 mb - 0.00 in0.0 mm 0.00 in0.0 mm
09:10 AM 36.0°F2.2°C 33.0°F0.6°C 89% 5.0 mph S8.0 kmh S 8.0 mph12.9 kmh 30.23 in1023.7 mb - 0.00 in0.0 mm 0.00 in0.0 mm
09:20 AM 36.7°F2.6°C 33.5°F0.8°C 88% 3.0 mph S4.8 kmh S 5.0 mph8.0 kmh 30.23 in1023.7 mb - 0.00 in0.0 mm 0.00 in0.0 mm
09:30 AM 37.5°F3.1°C 33.6°F0.9°C 86% 3.0 mph SSW4.8 kmh SSW 5.0 mph8.0 kmh 30.23 in1023.7 mb - 0.00 in0.0 mm 0.00 in0.0 mm
09:40 AM 37.4°F3.0°C 33.4°F0.8°C 85% 3.0 mph SSE4.8 kmh SSE 6.0 mph9.7 kmh 30.23 in1023.7 mb - 0.00 in0.0 mm 0.00 in0.0 mm
09:50 AM 37.7°F3.2°C 33.6°F0.9°C 85% 3.0 mph SSW4.8 kmh SSW 6.0 mph9.7 kmh 30.22 in1023.4 mb - 0.00 in0.0 mm 0.00 in0.0 mm
10:00 AM 38.6°F3.7°C 34.2°F1.2°C 84% 2.0 mph S3.2 kmh S 6.0 mph9.7 kmh 30.22 in1023.4 mb - 0.00 in0.0 mm 0.00 in0.0 mm
10:10 AM 40.8°F4.9°C 35.1°F1.7°C 80% 3.0 mph SSW4.8 kmh SSW 7.0 mph11.3 kmh 30.22 in1023.4 mb - 0.00 in0.0 mm 0.00 in0.0 mm
10:20 AM 42.2°F5.7°C 35.1°F1.7°C 76% 6.0 mph S9.7 kmh S 7.0 mph11.3 kmh 30.22 in1023.4 mb - 0.00 in0.0 mm 0.00 in0.0 mm
10:30 AM 42.2°F5.7°C 34.5°F1.4°C 74% 2.0 mph SSW3.2 kmh SSW 7.0 mph11.3 kmh 30.21 in1023.0 mb - 0.00 in0.0 mm 0.00 in0.0 mm
10:40 AM 41.6°F5.3°C 34.6°F1.4°C 76% 7.0 mph SSW11.3 kmh SSW 9.0 mph14.5 kmh 30.21 in1023.0 mb - 0.00 in0.0 mm 0.00 in0.0 mm
10:50 AM 42.4°F5.8°C 35.0°F1.7°C 75% 5.0 mph SSW8.0 kmh SSW 7.0 mph11.3 kmh 30.20 in1022.7 mb - 0.00 in0.0 mm 0.00 in0.0 mm
11:00 AM 43.1°F6.2°C 35.0°F1.7°C 73% 5.0 mph SSW8.0 kmh SSW 7.0 mph11.3 kmh 30.19 in1022.4 mb - 0.00 in0.0 mm 0.00 in0.0 mm
11:10 AM 43.3°F6.3°C 35.6°F2.0°C 74% 3.0 mph S4.8 kmh S 9.0 mph14.5 kmh 30.19 in1022.4 mb - 0.00 in0.0 mm 0.00 in0.0 mm
11:20 AM 43.6°F6.4°C 35.2°F1.8°C 72% 5.0 mph SSW8.0 kmh SSW 7.0 mph11.3 kmh 30.18 in1022.0 mb - 0.00 in0.0 mm 0.00 in0.0 mm
11:30 AM 43.9°F6.6°C 35.5°F1.9°C 72% 5.0 mph S8.0 kmh S 7.0 mph11.3 kmh 30.18 in1022.0 mb - 0.00 in0.0 mm 0.00 in0.0 mm
11:40 AM 42.9°F6.1°C 34.9°F1.6°C 73% 6.0 mph SW9.7 kmh SW 9.0 mph14.5 kmh 30.18 in1022.0 mb - 0.00 in0.0 mm 0.00 in0.0 mm
11:50 AM 42.4°F5.8°C 35.0°F1.7°C 75% 5.0 mph SSW8.0 kmh SSW 7.0 mph11.3 kmh 30.17 in1021.7 mb - 0.00 in0.0 mm 0.00 in0.0 mm
12:00 PM 42.6°F5.9°C 35.2°F1.8°C 75% 6.0 mph SW9.7 kmh SW 10.0 mph16.1 kmh 30.17 in1021.7 mb - 0.00 in0.0 mm 0.00 in0.0 mm
12:10 PM 42.8°F6.0°C 35.4°F1.9°C 75% 5.0 mph SSW8.0 kmh SSW 8.0 mph12.9 kmh 30.16 in1021.3 mb - 0.00 in0.0 mm 0.00 in0.0 mm
12:20 PM 42.9°F6.1°C 35.5°F1.9°C 75% 7.0 mph SSW11.3 kmh SSW 9.0 mph14.5 kmh 30.16 in1021.3 mb - 0.00 in0.0 mm 0.00 in0.0 mm
12:30 PM 43.2°F6.2°C 35.5°F1.9°C 74% 5.0 mph SW8.0 kmh SW 7.0 mph11.3 kmh 30.15 in1021.0 mb - 0.00 in0.0 mm 0.00 in0.0 mm
12:40 PM 43.4°F6.3°C 36.0°F2.2°C 75% 2.0 mph SW3.2 kmh SW 9.0 mph14.5 kmh 30.15 in1021.0 mb - 0.00 in0.0 mm 0.00 in0.0 mm
12:50 PM 44.6°F7.0°C 36.1°F2.3°C 72% 5.0 mph SSW8.0 kmh SSW 7.0 mph11.3 kmh 30.14 in1020.7 mb - 0.00 in0.0 mm 0.00 in0.0 mm
01:00 PM 45.4°F7.4°C 36.2°F2.3°C 70% 5.0 mph SSW8.0 kmh SSW 7.0 mph11.3 kmh 30.14 in1020.7 mb - 0.00 in0.0 mm 0.00 in0.0 mm
01:10 PM 45.3°F7.4°C 35.7°F2.1°C 69% 5.0 mph SW8.0 kmh SW 6.0 mph9.7 kmh 30.13 in1020.3 mb - 0.00 in0.0 mm 0.00 in0.0 mm
01:20 PM 44.3°F6.8°C 35.8°F2.1°C 72% 3.0 mph SW4.8 kmh SW 6.0 mph9.7 kmh 30.13 in1020.3 mb - 0.00 in0.0 mm 0.00 in0.0 mm
01:30 PM 43.9°F6.6°C 35.8°F2.1°C 73% 2.0 mph SW3.2 kmh SW 3.0 mph4.8 kmh 30.13 in1020.3 mb - 0.00 in0.0 mm 0.00 in0.0 mm
01:40 PM 44.0°F6.7°C 35.6°F2.0°C 72% 6.0 mph SW9.7 kmh SW 12.0 mph19.3 kmh 30.12 in1020.0 mb - 0.00 in0.0 mm 0.00 in0.0 mm
01:50 PM 43.7°F6.5°C 35.3°F1.8°C 72% 8.0 mph SW12.9 kmh SW 12.0 mph19.3 kmh 30.11 in1019.6 mb - 0.00 in0.0 mm 0.00 in0.0 mm
02:00 PM 43.7°F6.5°C 35.3°F1.8°C 72% 5.0 mph SW8.0 kmh SW 8.0 mph12.9 kmh 30.11 in1019.6 mb - 0.00 in0.0 mm 0.00 in0.0 mm
02:10 PM 43.7°F6.5°C 34.9°F1.6°C 71% 6.0 mph SW9.7 kmh SW 9.0 mph14.5 kmh 30.11 in1019.6 mb - 0.00 in0.0 mm 0.00 in0.0 mm
02:20 PM 43.5°F6.4°C 35.1°F1.7°C 72% 8.0 mph SSW12.9 kmh SSW 12.0 mph19.3 kmh 30.10 in1019.3 mb - 0.00 in0.0 mm 0.00 in0.0 mm
02:30 PM 43.3°F6.3°C 34.5°F1.4°C 71% 5.0 mph SSW8.0 kmh SSW 9.0 mph14.5 kmh 30.10 in1019.3 mb - 0.00 in0.0 mm 0.00 in0.0 mm
02:40 PM 43.2°F6.2°C 34.1°F1.2°C 70% 6.0 mph SW9.7 kmh SW 10.0 mph16.1 kmh 30.09 in1019.0 mb - 0.00 in0.0 mm 0.00 in0.0 mm
02:50 PM 42.7°F5.9°C 33.9°F1.1°C 71% 6.0 mph SW9.7 kmh SW 8.0 mph12.9 kmh 30.09 in1019.0 mb - 0.00 in0.0 mm 0.00 in0.0 mm
03:00 PM 42.4°F5.8°C 34.4°F1.3°C 73% 2.0 mph SSW3.2 kmh SSW 5.0 mph8.0 kmh 30.08 in1018.6 mb - 0.00 in0.0 mm 0.00 in0.0 mm
03:10 PM 42.2°F5.7°C 34.1°F1.2°C 73% 5.0 mph S8.0 kmh S 7.0 mph11.3 kmh 30.08 in1018.6 mb - 0.00 in0.0 mm 0.00 in0.0 mm
03:20 PM 41.7°F5.4°C 34.0°F1.1°C 74% 2.0 mph S3.2 kmh S 5.0 mph8.0 kmh 30.08 in1018.6 mb - 0.00 in0.0 mm 0.00 in0.0 mm
03:30 PM 38.9°F3.8°C 25.4°F-3.7°C 58% 4.1 mph SW6.6 kmh SW 6.0 mph9.7 kmh 30.13 in1020.3 mb - 0.00 in0.0 mm 0.00 in0.0 mm
03:40 PM 41.0°F5.0°C 33.7°F0.9°C 75% 1.0 mph SE1.6 kmh SE 3.0 mph4.8 kmh 30.07 in1018.3 mb - 0.00 in0.0 mm 0.00 in0.0 mm
03:50 PM 40.3°F4.6°C 33.3°F0.7°C 76% 1.0 mph S1.6 kmh S 1.0 mph1.6 kmh 30.07 in1018.3 mb 0.00 in0.0 mm 0.00 in0.0 mm 0.00 in0.0 mm
04:00 PM 39.8°F4.3°C 32.8°F0.4°C 76% 1.0 mph S1.6 kmh S 2.0 mph3.2 kmh 30.07 in1018.3 mb 0.00 in0.0 mm 0.00 in0.0 mm 0.00 in0.0 mm
04:20 PM 38.7°F3.7°C 32.5°F0.3°C 78% Calm Calm 2.0 mph3.2 kmh 30.06 in1017.9 mb 0.00 in0.0 mm 0.00 in0.0 mm 0.00 in0.0 mm
04:30 PM 37.4°F3.0°C 31.8°F-0.1°C 80% 1.0 mph SSE1.6 kmh SSE 2.0 mph3.2 kmh 30.06 in1017.9 mb 0.00 in0.0 mm 0.00 in0.0 mm 0.00 in0.0 mm
04:40 PM 37.2°F2.9°C 31.6°F-0.2°C 80% Calm Calm 3.0 mph4.8 kmh 30.06 in1017.9 mb 0.00 in0.0 mm 0.00 in0.0 mm 0.00 in0.0 mm
04:50 PM 37.4°F3.0°C 31.5°F-0.3°C 79% 1.0 mph S1.6 kmh S 5.0 mph8.0 kmh 30.05 in1017.6 mb 0.00 in0.0 mm 0.00 in0.0 mm 0.00 in0.0 mm
05:00 PM 37.2°F2.9°C 31.6°F-0.2°C 80% 2.0 mph S3.2 kmh S 5.0 mph8.0 kmh 30.05 in1017.6 mb 0.00 in0.0 mm 0.00 in0.0 mm 0.00 in0.0 mm
05:10 PM 37.9°F3.3°C 31.6°F-0.2°C 78% 3.0 mph S4.8 kmh S 6.0 mph9.7 kmh 30.05 in1017.6 mb 0.00 in0.0 mm 0.00 in0.0 mm 0.00 in0.0 mm
05:20 PM 37.9°F3.3°C 31.4°F-0.3°C 77% 3.0 mph SSE4.8 kmh SSE 8.0 mph12.9 kmh 30.05 in1017.6 mb 0.00 in0.0 mm 0.00 in0.0 mm 0.00 in0.0 mm
05:30 PM 38.1°F3.4°C 31.2°F-0.4°C 76% Calm Calm 1.0 mph1.6 kmh 30.04 in1017.3 mb 0.00 in0.0 mm 0.00 in0.0 mm 0.00 in0.0 mm
05:40 PM 38.0°F3.3°C 31.4°F-0.3°C 77% 1.0 mph S1.6 kmh S 3.0 mph4.8 kmh 30.04 in1017.3 mb 0.00 in0.0 mm 0.00 in0.0 mm 0.00 in0.0 mm
05:50 PM 37.7°F3.2°C 31.1°F-0.5°C 77% 1.0 mph SSE1.6 kmh SSE 3.0 mph4.8 kmh 30.04 in1017.3 mb 0.00 in0.0 mm 0.00 in0.0 mm 0.00 in0.0 mm
06:00 PM 37.5°F3.1°C 31.0°F-0.6°C 77% 3.0 mph SE4.8 kmh SE 3.0 mph4.8 kmh 30.04 in1017.3 mb 0.00 in0.0 mm 0.00 in0.0 mm 0.00 in0.0 mm
06:10 PM 37.2°F2.9°C 30.7°F-0.7°C 77% Calm Calm 2.0 mph3.2 kmh 30.03 in1016.9 mb 0.00 in0.0 mm 0.00 in0.0 mm 0.00 in0.0 mm
06:20 PM 36.6°F2.6°C 30.7°F-0.7°C 79% 3.0 mph S4.8 kmh S 8.0 mph12.9 kmh 30.03 in1016.9 mb 0.00 in0.0 mm 0.00 in0.0 mm 0.00 in0.0 mm
06:30 PM 29.8°F-1.2°C 24.1°F-4.4°C 79% 0.3 mph SW0.5 kmh SW 2.0 mph3.2 kmh 30.08 in1018.6 mb - 0.00 in0.0 mm 0.00 in0.0 mm
06:40 PM 36.0°F2.2°C 30.4°F-0.9°C 80% 2.0 mph S3.2 kmh S 3.0 mph4.8 kmh 30.02 in1016.6 mb 0.00 in0.0 mm 0.00 in0.0 mm 0.00 in0.0 mm
06:50 PM 36.0°F2.2°C 30.4°F-0.9°C 80% 1.0 mph S1.6 kmh S 3.0 mph4.8 kmh 30.02 in1016.6 mb 0.00 in0.0 mm 0.00 in0.0 mm 0.00 in0.0 mm
07:00 PM 35.5°F1.9°C 30.0°F-1.1°C 80% Calm Calm 1.0 mph1.6 kmh 30.02 in1016.6 mb 0.00 in0.0 mm 0.00 in0.0 mm 0.00 in0.0 mm
07:10 PM 34.7°F1.5°C 29.8°F-1.2°C 82% Calm Calm 2.0 mph3.2 kmh 30.02 in1016.6 mb 0.00 in0.0 mm 0.00 in0.0 mm 0.00 in0.0 mm
07:20 PM 34.2°F1.2°C 29.3°F-1.5°C 82% 1.0 mph S1.6 kmh S 1.0 mph1.6 kmh 30.01 in1016.3 mb 0.00 in0.0 mm 0.00 in0.0 mm 0.00 in0.0 mm
07:30 PM 34.2°F1.2°C 29.6°F-1.3°C 83% 2.0 mph S3.2 kmh S 3.0 mph4.8 kmh 30.01 in1016.3 mb 0.00 in0.0 mm 0.00 in0.0 mm 0.00 in0.0 mm
07:40 PM 34.9°F1.6°C 30.2°F-1.0°C 83% 2.0 mph S3.2 kmh S 3.0 mph4.8 kmh 30.01 in1016.3 mb 0.00 in0.0 mm 0.00 in0.0 mm 0.00 in0.0 mm
07:50 PM 35.3°F1.8°C 30.0°F-1.1°C 81% 2.0 mph S3.2 kmh S 3.0 mph4.8 kmh 30.01 in1016.3 mb 0.00 in0.0 mm 0.00 in0.0 mm 0.00 in0.0 mm
08:00 PM 35.6°F2.0°C 30.0°F-1.1°C 80% 2.0 mph SSW3.2 kmh SSW 3.0 mph4.8 kmh 30.00 in1015.9 mb 0.00 in0.0 mm 0.00 in0.0 mm 0.00 in0.0 mm
08:10 PM 35.3°F1.8°C 29.8°F-1.2°C 80% 1.0 mph SSW1.6 kmh SSW 1.0 mph1.6 kmh 30.00 in1015.9 mb 0.00 in0.0 mm 0.00 in0.0 mm 0.00 in0.0 mm
08:20 PM 34.1°F1.2°C 29.1°F-1.6°C 82% Calm Calm -- 30.00 in1015.9 mb 0.00 in0.0 mm 0.00 in0.0 mm 0.00 in0.0 mm
08:30 PM 33.4°F0.8°C 29.0°F-1.7°C 84% Calm Calm -- 29.99 in1015.6 mb 0.00 in0.0 mm 0.00 in0.0 mm 0.00 in0.0 mm
08:40 PM 33.4°F0.8°C 29.1°F-1.6°C 84% 1.0 mph SSW1.6 kmh SSW 3.0 mph4.8 kmh 29.99 in1015.6 mb 0.00 in0.0 mm 0.00 in0.0 mm 0.00 in0.0 mm
08:50 PM 34.1°F1.2°C 29.5°F-1.4°C 83% 1.0 mph SSW1.6 kmh SSW 2.0 mph3.2 kmh 29.98 in1015.2 mb 0.00 in0.0 mm 0.00 in0.0 mm 0.00 in0.0 mm
09:00 PM 34.3°F1.3°C 29.4°F-1.4°C 82% 3.0 mph SSW4.8 kmh SSW 3.0 mph4.8 kmh 29.98 in1015.2 mb 0.00 in0.0 mm 0.00 in0.0 mm 0.00 in0.0 mm
09:10 PM 34.4°F1.3°C 29.4°F-1.4°C 82% Calm Calm 1.0 mph1.6 kmh 29.97 in1014.9 mb 0.00 in0.0 mm 0.00 in0.0 mm 0.00 in0.0 mm
09:20 PM 33.7°F0.9°C 29.0°F-1.7°C 83% Calm Calm 1.0 mph1.6 kmh 29.96 in1014.6 mb 0.00 in0.0 mm 0.00 in0.0 mm 0.00 in0.0 mm
09:30 PM 32.7°F0.4°C 28.7°F-1.8°C 85% 1.0 mph SSW1.6 kmh SSW 3.0 mph4.8 kmh 29.96 in1014.6 mb 0.00 in0.0 mm 0.00 in0.0 mm 0.00 in0.0 mm
09:40 PM 32.7°F0.4°C 28.7°F-1.8°C 85% 1.0 mph S1.6 kmh S 2.0 mph3.2 kmh 29.95 in1014.2 mb 0.00 in0.0 mm 0.00 in0.0 mm 0.00 in0.0 mm
09:50 PM 32.5°F0.3°C 28.5°F-1.9°C 85% 2.0 mph ESE3.2 kmh ESE 3.0 mph4.8 kmh 29.95 in1014.2 mb 0.00 in0.0 mm 0.00 in0.0 mm 0.00 in0.0 mm
10:00 PM 32.6°F0.3°C 28.6°F-1.9°C 85% 2.0 mph ESE3.2 kmh ESE 2.0 mph3.2 kmh 29.94 in1013.9 mb 0.00 in0.0 mm 0.00 in0.0 mm 0.00 in0.0 mm
10:10 PM 34.3°F1.3°C 29.4°F-1.4°C 82% 2.0 mph SE3.2 kmh SE 5.0 mph8.0 kmh 29.93 in1013.5 mb 0.00 in0.0 mm 0.00 in0.0 mm 0.00 in0.0 mm
10:20 PM 35.2°F1.8°C 29.4°F-1.4°C 79% 2.0 mph SE3.2 kmh SE 3.0 mph4.8 kmh 29.93 in1013.5 mb 0.00 in0.0 mm 0.00 in0.0 mm 0.00 in0.0 mm
10:30 PM 35.4°F1.9°C 29.2°F-1.6°C 78% 1.0 mph SE1.6 kmh SE 2.0 mph3.2 kmh 29.92 in1013.2 mb 0.00 in0.0 mm 0.00 in0.0 mm 0.00 in0.0 mm
10:40 PM 33.6°F0.9°C 28.1°F-2.2°C 80% 1.0 mph SE1.6 kmh SE 3.0 mph4.8 kmh 29.92 in1013.2 mb 0.00 in0.0 mm 0.00 in0.0 mm 0.00 in0.0 mm
10:50 PM 32.3°F0.2°C 28.0°F-2.2°C 84% Calm Calm -- 29.91 in1012.9 mb 0.00 in0.0 mm 0.00 in0.0 mm 0.00 in0.0 mm
11:00 PM 31.5°F-0.3°C 27.8°F-2.3°C 86% 2.0 mph E3.2 kmh E 3.0 mph4.8 kmh 29.90 in1012.5 mb 0.00 in0.0 mm 0.00 in0.0 mm 0.00 in0.0 mm
11:10 PM 30.9°F-0.6°C 27.5°F-2.5°C 87% 1.0 mph E1.6 kmh E 2.0 mph3.2 kmh 29.90 in1012.5 mb 0.00 in0.0 mm 0.00 in0.0 mm 0.00 in0.0 mm
11:20 PM 31.0°F-0.6°C 27.8°F-2.3°C 88% 2.0 mph E3.2 kmh E 3.0 mph4.8 kmh 29.89 in1012.2 mb 0.00 in0.0 mm 0.00 in0.0 mm 0.00 in0.0 mm
11:30 PM 31.2°F-0.4°C 27.8°F-2.3°C 87% 1.0 mph E1.6 kmh E 3.0 mph4.8 kmh 29.89 in1012.2 mb 0.00 in0.0 mm 0.00 in0.0 mm 0.00 in0.0 mm
11:40 PM 31.1°F-0.5°C 27.9°F-2.3°C 88% 1.0 mph E1.6 kmh E 2.0 mph3.2 kmh 29.89 in1012.2 mb 0.00 in0.0 mm 0.00 in0.0 mm 0.00 in0.0 mm
11:50 PM 31.1°F-0.5°C 28.0°F-2.2°C 88% 1.0 mph E1.6 kmh E 2.0 mph3.2 kmh 29.88 in1011.9 mb 0.00 in0.0 mm 0.00 in0.0 mm 0.00 in0.0 mm